Time;durP1;ratioP1;P1;durP2;ratioP2;P2;SDS_P1;SDS_P2;PMS_P1;PMS_P2;Temp;Humidity;BMP_temperature;BMP_pressure;BME280_temperature;BME280_humidity;BME280_pressure;Samples;Min_cycle;Max_cycle;Signal;HPM_P1;HPM_P2
2021/12/31 00:00:34;;;;;;;;;;;21.40;49.40;;;;;;4935477;28;19962;-63
2021/12/31 00:02:59;;;;;;;;;;;21.40;49.40;;;;;;4935230;29;19914;-63
2021/12/31 00:05:25;;;;;;;;;;;21.40;49.40;;;;;;4935187;29;19922;-63
2021/12/31 00:07:50;;;;;;;;;;;21.40;49.30;;;;;;4934610;28;19914;-63
2021/12/31 00:10:16;;;;;;;;;;;21.40;49.40;;;;;;4935089;29;19958;-63
2021/12/31 00:12:43;;;;;;;;;;;21.30;49.40;;;;;;4935023;29;19953;-63
2021/12/31 00:15:09;;;;;;;;;;;21.30;49.50;;;;;;4960619;28;19961;-63
2021/12/31 00:17:34;;;;;;;;;;;21.30;49.50;;;;;;4954238;28;19915;-63
2021/12/31 00:20:04;;;;;;;;;;;21.30;49.50;;;;;;4985114;28;19910;-63
2021/12/31 00:25:13;;;;;;;;;;;21.20;49.80;;;;;;4954152;29;19921;-64
2021/12/31 00:27:39;;;;;;;;;;;21.20;49.80;;;;;;4953721;29;19910;-63
2021/12/31 00:30:05;;;;;;;;;;;21.20;49.80;;;;;;4954034;29;19941;-63
2021/12/31 00:32:30;;;;;;;;;;;21.10;49.80;;;;;;4953899;28;19917;-63
2021/12/31 00:34:56;;;;;;;;;;;21.10;49.80;;;;;;4968720;28;19914;-63
2021/12/31 00:37:27;;;;;;;;;;;21.10;49.80;;;;;;4953091;29;19922;-63
2021/12/31 00:39:53;;;;;;;;;;;21.10;49.90;;;;;;4985040;28;19919;-63
2021/12/31 00:42:18;;;;;;;;;;;21.10;50.00;;;;;;4953584;29;19910;-63
2021/12/31 00:44:44;;;;;;;;;;;21.10;50.10;;;;;;4954047;29;19910;-62
2021/12/31 00:47:09;;;;;;;;;;;21.10;50.00;;;;;;4945340;29;19911;-63
2021/12/31 00:49:35;;;;;;;;;;;21.10;50.00;;;;;;4949277;29;20008;-63
2021/12/31 00:52:00;;;;;;;;;;;21.10;50.00;;;;;;4953018;29;19965;-63
2021/12/31 00:54:25;;;;;;;;;;;21.10;50.00;;;;;;4953641;29;19921;-63
2021/12/31 00:56:51;;;;;;;;;;;21.10;50.00;;;;;;4953416;29;20360;-63
2021/12/31 00:59:16;;;;;;;;;;;21.00;50.70;;;;;;4953778;29;19927;-63
2021/12/31 01:01:42;;;;;;;;;;;21.00;50.10;;;;;;4953393;29;19911;-63
2021/12/31 01:04:07;;;;;;;;;;;21.00;50.20;;;;;;4953739;29;19914;-63
2021/12/31 01:06:33;;;;;;;;;;;21.00;50.20;;;;;;4952740;29;19914;-63
2021/12/31 01:08:58;;;;;;;;;;;21.00;50.20;;;;;;4954673;28;19965;-61
2021/12/31 01:11:24;;;;;;;;;;;21.00;50.20;;;;;;4957264;29;19910;-61
2021/12/31 01:13:59;;;;;;;;;;;21.00;50.20;;;;;;4955542;29;21278;-63
2021/12/31 01:16:35;;;;;;;;;;;21.00;50.20;;;;;;4956984;29;19963;-64
2021/12/31 01:21:26;;;;;;;;;;;21.00;50.30;;;;;;4941926;28;19910;-63
2021/12/31 01:23:51;;;;;;;;;;;20.90;50.30;;;;;;4954614;29;20495;-64
2021/12/31 01:26:17;;;;;;;;;;;20.90;50.30;;;;;;4957021;29;20268;-63
2021/12/31 01:28:42;;;;;;;;;;;20.80;50.30;;;;;;4956881;29;19962;-63
2021/12/31 01:31:08;;;;;;;;;;;20.80;50.30;;;;;;4988088;28;19918;-63
2021/12/31 01:33:33;;;;;;;;;;;20.80;50.40;;;;;;4956843;29;19914;-63
2021/12/31 01:35:58;;;;;;;;;;;20.80;50.40;;;;;;4956088;28;19914;-63
2021/12/31 01:38:24;;;;;;;;;;;20.80;50.40;;;;;;4957052;28;19945;-63
2021/12/31 01:40:49;;;;;;;;;;;20.80;50.90;;;;;;4987644;28;19919;-63
2021/12/31 01:43:18;;;;;;;;;;;20.80;50.30;;;;;;4957244;28;19917;-63
2021/12/31 01:45:47;;;;;;;;;;;20.80;50.30;;;;;;4987696;28;19911;-63
2021/12/31 01:50:59;;;;;;;;;;;20.90;50.50;;;;;;4955924;29;19965;-63
2021/12/31 01:53:26;;;;;;;;;;;20.80;50.40;;;;;;4956694;29;19950;-63
2021/12/31 01:55:54;;;;;;;;;;;20.80;50.50;;;;;;4955975;29;20292;-63
2021/12/31 01:58:21;;;;;;;;;;;20.70;50.70;;;;;;4987695;28;19930;-63
2021/12/31 02:00:47;;;;;;;;;;;20.70;50.70;;;;;;4971180;28;19957;-63
2021/12/31 02:03:12;;;;;;;;;;;20.70;50.60;;;;;;4956507;28;19954;-63
2021/12/31 02:05:38;;;;;;;;;;;20.70;50.60;;;;;;4956039;29;19914;-63
2021/12/31 02:08:04;;;;;;;;;;;20.70;50.60;;;;;;4956134;29;19934;-64
2021/12/31 02:10:29;;;;;;;;;;;20.70;50.80;;;;;;4942614;28;19923;-63
2021/12/31 02:12:55;;;;;;;;;;;20.50;50.90;;;;;;4969189;28;19914;-63
2021/12/31 02:15:20;;;;;;;;;;;20.40;51.10;;;;;;4987324;28;19998;-63
2021/12/31 02:17:47;;;;;;;;;;;20.40;51.20;;;;;;4955984;29;19915;-63
2021/12/31 02:20:14;;;;;;;;;;;20.40;51.10;;;;;;4986005;28;19945;-63
2021/12/31 02:22:40;;;;;;;;;;;20.60;51.00;;;;;;4986395;28;20686;-63
2021/12/31 02:25:06;;;;;;;;;;;20.70;50.90;;;;;;4956315;29;19915;-63
2021/12/31 02:27:34;;;;;;;;;;;20.80;50.70;;;;;;4955609;28;19911;-61
2021/12/31 02:30:00;;;;;;;;;;;21.00;50.30;;;;;;4955900;28;20299;-63
2021/12/31 02:32:25;;;;;;;;;;;21.30;49.80;;;;;;4955640;29;19922;-63
2021/12/31 02:34:51;;;;;;;;;;;21.60;49.30;;;;;;4955895;29;20009;-63
2021/12/31 02:37:17;;;;;;;;;;;21.80;48.80;;;;;;4955259;28;19915;-63
2021/12/31 02:39:43;;;;;;;;;;;22.00;48.30;;;;;;4986986;28;20268;-63
2021/12/31 02:42:09;;;;;;;;;;;22.20;47.90;;;;;;4955579;28;19910;-63
2021/12/31 02:44:35;;;;;;;;;;;22.40;47.60;;;;;;4955814;29;19914;-63
2021/12/31 02:47:03;;;;;;;;;;;22.60;47.20;;;;;;4951707;28;19926;-63
2021/12/31 02:49:34;;;;;;;;;;;22.70;46.80;;;;;;4955844;29;19917;-63
2021/12/31 02:52:02;;;;;;;;;;;22.80;46.70;;;;;;4955082;28;19917;-63
2021/12/31 02:54:28;;;;;;;;;;;22.90;46.70;;;;;;4955556;29;19910;-63
2021/12/31 02:56:53;;;;;;;;;;;23.00;46.60;;;;;;4955113;28;19922;-63
2021/12/31 02:59:19;;;;;;;;;;;23.10;46.60;;;;;;4970481;28;19914;-63
2021/12/31 03:01:44;;;;;;;;;;;23.10;46.60;;;;;;4955175;29;19918;-63
2021/12/31 03:04:10;;;;;;;;;;;23.10;46.60;;;;;;4970001;28;19914;-61
2021/12/31 03:06:35;;;;;;;;;;;23.20;46.60;;;;;;4954736;29;19911;-61
2021/12/31 03:09:00;;;;;;;;;;;23.20;46.60;;;;;;4986143;28;19926;-60
2021/12/31 03:11:26;;;;;;;;;;;23.30;46.60;;;;;;4970044;28;19997;-62
2021/12/31 03:13:52;;;;;;;;;;;23.30;46.60;;;;;;4986324;28;19911;-61
2021/12/31 03:16:20;;;;;;;;;;;23.30;46.50;;;;;;4954829;29;19969;-61
2021/12/31 03:18:46;;;;;;;;;;;23.40;46.50;;;;;;4986045;28;19983;-61
2021/12/31 03:21:20;;;;;;;;;;;23.40;46.40;;;;;;4954222;28;20022;-61
2021/12/31 03:23:46;;;;;;;;;;;23.50;46.40;;;;;;4961431;28;19911;-61
2021/12/31 03:26:11;;;;;;;;;;;23.50;46.40;;;;;;4954701;29;19910;-61
2021/12/31 03:28:37;;;;;;;;;;;23.50;46.40;;;;;;4985786;28;19911;-61
2021/12/31 03:31:02;;;;;;;;;;;23.50;46.30;;;;;;4969655;28;19919;-62
2021/12/31 03:33:28;;;;;;;;;;;23.50;46.30;;;;;;4954725;29;19910;-61
2021/12/31 03:35:53;;;;;;;;;;;23.60;46.40;;;;;;4951486;29;19939;-61
2021/12/31 03:38:19;;;;;;;;;;;23.60;46.40;;;;;;4940107;29;20017;-61
2021/12/31 03:40:46;;;;;;;;;;;23.60;46.40;;;;;;4954643;29;20016;-61
2021/12/31 03:43:11;;;;;;;;;;;23.60;46.50;;;;;;4953386;29;20124;-63
2021/12/31 03:45:37;;;;;;;;;;;23.50;46.40;;;;;;4954448;29;20013;-63
2021/12/31 03:48:03;;;;;;;;;;;23.60;46.50;;;;;;4953203;29;19914;-63
2021/12/31 03:50:28;;;;;;;;;;;23.50;46.40;;;;;;4953579;29;19910;-63
2021/12/31 03:52:53;;;;;;;;;;;23.60;46.50;;;;;;4952658;29;19914;-61
2021/12/31 03:55:20;;;;;;;;;;;23.60;46.50;;;;;;4954328;29;19914;-61
2021/12/31 03:57:45;;;;;;;;;;;23.60;46.50;;;;;;4954215;29;19918;-60
2021/12/31 04:00:11;;;;;;;;;;;23.60;46.60;;;;;;4954267;29;19923;-61
2021/12/31 04:02:36;;;;;;;;;;;23.60;46.70;;;;;;4954429;28;20041;-61
2021/12/31 04:05:02;;;;;;;;;;;23.50;46.60;;;;;;4985181;28;19926;-61
2021/12/31 04:07:28;;;;;;;;;;;23.50;46.70;;;;;;4984643;28;19911;-60
2021/12/31 04:09:53;;;;;;;;;;;23.50;46.80;;;;;;4976307;28;19931;-61
2021/12/31 04:12:18;;;;;;;;;;;23.50;46.80;;;;;;4939457;29;19970;-61
2021/12/31 04:14:44;;;;;;;;;;;23.50;46.90;;;;;;4954066;29;20004;-63
2021/12/31 04:17:09;;;;;;;;;;;23.50;46.80;;;;;;4954029;29;19918;-63
2021/12/31 04:19:35;;;;;;;;;;;23.50;46.90;;;;;;4985215;28;19985;-64
2021/12/31 04:22:01;;;;;;;;;;;23.40;47.00;;;;;;4953312;29;20375;-64
2021/12/31 04:24:30;;;;;;;;;;;23.40;47.20;;;;;;4953979;29;20013;-64
2021/12/31 04:26:55;;;;;;;;;;;23.30;47.20;;;;;;4952201;29;20268;-63
2021/12/31 04:29:21;;;;;;;;;;;23.20;47.50;;;;;;4969526;28;19934;-63
2021/12/31 04:31:46;;;;;;;;;;;23.10;47.60;;;;;;4953835;29;20006;-64
2021/12/31 04:34:12;;;;;;;;;;;23.10;47.70;;;;;;4952291;29;19918;-63
2021/12/31 04:36:37;;;;;;;;;;;23.10;47.90;;;;;;4952981;28;19921;-63
2021/12/31 04:39:02;;;;;;;;;;;23.10;47.90;;;;;;4954155;28;19914;-64
2021/12/31 04:41:28;;;;;;;;;;;23.10;47.70;;;;;;4953765;28;19911;-63
2021/12/31 04:43:53;;;;;;;;;;;23.20;47.70;;;;;;4956685;28;20363;-63
2021/12/31 04:46:19;;;;;;;;;;;23.20;47.60;;;;;;4959929;28;20366;-63
2021/12/31 04:48:44;;;;;;;;;;;23.30;47.50;;;;;;4960270;29;19921;-63
2021/12/31 04:51:10;;;;;;;;;;;23.30;47.30;;;;;;4959399;28;19921;-63
2021/12/31 04:53:35;;;;;;;;;;;23.40;47.20;;;;;;4959022;28;19957;-63
2021/12/31 04:56:01;;;;;;;;;;;23.40;47.20;;;;;;4959867;28;19918;-62
2021/12/31 04:58:26;;;;;;;;;;;23.40;47.20;;;;;;4956449;28;20002;-61
2021/12/31 05:00:52;;;;;;;;;;;23.50;47.30;;;;;;4956806;29;19917;-63
2021/12/31 05:03:17;;;;;;;;;;;23.50;47.30;;;;;;4959985;29;20434;-61
2021/12/31 05:05:42;;;;;;;;;;;23.50;47.20;;;;;;4959616;29;20385;-60
2021/12/31 05:08:08;;;;;;;;;;;23.60;47.20;;;;;;4990454;28;20434;-62
2021/12/31 05:10:34;;;;;;;;;;;23.60;47.20;;;;;;4991229;28;19953;-61
2021/12/31 05:13:00;;;;;;;;;;;23.50;47.00;;;;;;4960037;28;19921;-61
2021/12/31 05:15:27;;;;;;;;;;;23.60;47.10;;;;;;4990958;28;19911;-63
2021/12/31 05:17:53;;;;;;;;;;;23.60;47.10;;;;;;4959967;28;19910;-63
2021/12/31 05:20:19;;;;;;;;;;;23.60;47.10;;;;;;4959934;28;19911;-63
2021/12/31 05:22:44;;;;;;;;;;;23.60;47.00;;;;;;4959144;28;19914;-64
2021/12/31 05:25:10;;;;;;;;;;;23.60;46.90;;;;;;4960052;28;19911;-64
2021/12/31 05:27:35;;;;;;;;;;;23.70;47.00;;;;;;4959715;29;19917;-64
2021/12/31 05:30:01;;;;;;;;;;;23.70;46.90;;;;;;4974649;28;19961;-64
2021/12/31 05:32:26;;;;;;;;;;;23.70;46.90;;;;;;4958427;29;20371;-63
2021/12/31 05:34:52;;;;;;;;;;;23.70;46.80;;;;;;4991022;28;20315;-63
2021/12/31 05:37:17;;;;;;;;;;;23.70;46.80;;;;;;4950020;29;20338;-63
2021/12/31 05:39:44;;;;;;;;;;;23.70;46.80;;;;;;4958472;28;20331;-63
2021/12/31 05:42:10;;;;;;;;;;;23.70;46.80;;;;;;4959682;28;19915;-63
2021/12/31 05:44:35;;;;;;;;;;;23.70;46.80;;;;;;4959947;28;20009;-63
2021/12/31 05:47:01;;;;;;;;;;;23.70;46.80;;;;;;4959432;29;19911;-63
2021/12/31 05:49:26;;;;;;;;;;;23.70;46.70;;;;;;4974426;28;19911;-63
2021/12/31 05:51:51;;;;;;;;;;;23.80;46.80;;;;;;4958765;28;19910;-63
2021/12/31 05:54:17;;;;;;;;;;;23.70;46.70;;;;;;4959303;28;20013;-62
2021/12/31 05:56:42;;;;;;;;;;;23.80;46.70;;;;;;4955129;29;20494;-61
2021/12/31 05:59:08;;;;;;;;;;;23.80;46.70;;;;;;4952833;29;19918;-61
2021/12/31 06:01:33;;;;;;;;;;;23.80;46.70;;;;;;4937254;29;19926;-61
2021/12/31 06:03:59;;;;;;;;;;;23.80;46.70;;;;;;4937359;29;19991;-61
2021/12/31 06:06:24;;;;;;;;;;;23.80;46.60;;;;;;4936556;29;19914;-61
2021/12/31 06:08:49;;;;;;;;;;;23.80;46.70;;;;;;4936990;29;19926;-61
2021/12/31 06:11:15;;;;;;;;;;;23.80;46.60;;;;;;4941060;29;19910;-61
2021/12/31 06:13:42;;;;;;;;;;;23.80;46.60;;;;;;4956450;29;19965;-62
2021/12/31 06:16:08;;;;;;;;;;;23.80;46.60;;;;;;4955874;29;20402;-61
2021/12/31 06:18:33;;;;;;;;;;;23.80;46.60;;;;;;4987428;28;19914;-61
2021/12/31 06:20:59;;;;;;;;;;;23.90;46.60;;;;;;4954219;29;19910;-61
2021/12/31 06:23:24;;;;;;;;;;;23.90;46.60;;;;;;4987359;28;19914;-61
2021/12/31 06:25:50;;;;;;;;;;;23.90;46.50;;;;;;4955921;29;19917;-61
2021/12/31 06:28:15;;;;;;;;;;;23.90;46.50;;;;;;4955629;29;19910;-61
2021/12/31 06:30:40;;;;;;;;;;;23.90;46.40;;;;;;4956146;29;19954;-61
2021/12/31 06:33:06;;;;;;;;;;;23.90;46.40;;;;;;4955974;29;19910;-61
2021/12/31 06:35:31;;;;;;;;;;;23.90;46.40;;;;;;4955864;29;19911;-60
2021/12/31 06:37:58;;;;;;;;;;;24.00;46.50;;;;;;4955414;28;19914;-61
2021/12/31 06:40:24;;;;;;;;;;;24.00;46.40;;;;;;4955962;28;19926;-61
2021/12/31 06:42:49;;;;;;;;;;;23.90;46.40;;;;;;4955800;28;19915;-61
2021/12/31 06:45:15;;;;;;;;;;;24.00;46.50;;;;;;4955478;28;19920;-62
2021/12/31 06:47:40;;;;;;;;;;;24.00;46.50;;;;;;4955701;29;19910;-61
2021/12/31 06:50:06;;;;;;;;;;;23.90;46.40;;;;;;4955746;29;20009;-61
2021/12/31 06:52:38;;;;;;;;;;;23.90;46.40;;;;;;4955257;28;19957;-61
2021/12/31 06:55:04;;;;;;;;;;;23.90;46.50;;;;;;4986659;28;20368;-61
2021/12/31 06:57:30;;;;;;;;;;;23.90;46.50;;;;;;4955275;28;20284;-60
2021/12/31 06:59:55;;;;;;;;;;;23.90;46.50;;;;;;4955072;29;19911;-61
2021/12/31 07:02:21;;;;;;;;;;;23.90;46.60;;;;;;4955200;29;20013;-61
2021/12/31 07:04:46;;;;;;;;;;;23.90;46.60;;;;;;4986359;28;19915;-62
2021/12/31 07:07:12;;;;;;;;;;;23.90;46.60;;;;;;4954148;28;19911;-61
2021/12/31 07:09:37;;;;;;;;;;;24.00;46.60;;;;;;4986176;28;19926;-61
2021/12/31 07:12:03;;;;;;;;;;;24.00;46.60;;;;;;4954031;29;20527;-62
2021/12/31 07:14:28;;;;;;;;;;;23.90;46.50;;;;;;4955217;28;19918;-61
2021/12/31 07:16:54;;;;;;;;;;;23.90;46.50;;;;;;4954957;29;20369;-61
2021/12/31 07:19:19;;;;;;;;;;;24.00;46.60;;;;;;4955414;29;19914;-61
2021/12/31 07:21:44;;;;;;;;;;;24.00;46.50;;;;;;4969045;28;19919;-62
2021/12/31 07:24:10;;;;;;;;;;;24.00;46.50;;;;;;4954860;29;19981;-61
2021/12/31 07:26:35;;;;;;;;;;;24.00;46.60;;;;;;4954736;29;19911;-61
2021/12/31 07:29:01;;;;;;;;;;;24.00;46.50;;;;;;4954981;29;19910;-62
2021/12/31 07:31:26;;;;;;;;;;;24.00;46.50;;;;;;4954726;29;19956;-61
2021/12/31 07:33:52;;;;;;;;;;;24.00;46.50;;;;;;4954813;29;19922;-61
2021/12/31 07:36:17;;;;;;;;;;;24.00;46.50;;;;;;4952723;29;19930;-64
2021/12/31 07:38:48;;;;;;;;;;;24.00;46.50;;;;;;4954803;29;19917;-63
2021/12/31 07:41:14;;;;;;;;;;;24.00;46.60;;;;;;4961066;28;20009;-64
2021/12/31 07:43:39;;;;;;;;;;;24.00;46.60;;;;;;4954691;29;20049;-64
2021/12/31 07:46:05;;;;;;;;;;;24.00;46.60;;;;;;4954422;29;20076;-63
2021/12/31 07:48:30;;;;;;;;;;;24.00;46.60;;;;;;4954649;29;19910;-64
2021/12/31 07:50:56;;;;;;;;;;;24.00;46.60;;;;;;4953685;29;19949;-64
2021/12/31 07:53:21;;;;;;;;;;;24.00;46.60;;;;;;4953137;29;19933;-64
2021/12/31 07:55:47;;;;;;;;;;;24.00;46.60;;;;;;4954332;29;19914;-62
2021/12/31 07:58:12;;;;;;;;;;;24.00;46.60;;;;;;4954194;29;19945;-61
2021/12/31 08:00:37;;;;;;;;;;;24.00;46.60;;;;;;4954462;29;19982;-63
2021/12/31 08:03:03;;;;;;;;;;;24.00;46.60;;;;;;4954389;29;19915;-63
2021/12/31 08:05:29;;;;;;;;;;;24.00;46.60;;;;;;4985500;28;20399;-63
2021/12/31 08:07:54;;;;;;;;;;;24.00;46.60;;;;;;4953441;28;19922;-63
2021/12/31 08:10:20;;;;;;;;;;;24.00;46.60;;;;;;4954031;29;19918;-63
2021/12/31 08:12:46;;;;;;;;;;;24.00;46.60;;;;;;4953961;29;19910;-63
2021/12/31 08:15:11;;;;;;;;;;;24.00;46.60;;;;;;4954397;28;19910;-63
2021/12/31 08:17:37;;;;;;;;;;;24.00;46.60;;;;;;4953597;28;19914;-63
2021/12/31 08:20:02;;;;;;;;;;;24.00;46.60;;;;;;4953578;29;19911;-63
2021/12/31 08:22:28;;;;;;;;;;;24.00;46.60;;;;;;4953508;28;19922;-63
2021/12/31 08:24:53;;;;;;;;;;;24.00;46.60;;;;;;4954072;29;19915;-63
2021/12/31 08:27:19;;;;;;;;;;;24.00;46.50;;;;;;4944839;29;20034;-63
2021/12/31 08:29:44;;;;;;;;;;;24.00;46.50;;;;;;4953896;29;19937;-63
2021/12/31 08:32:10;;;;;;;;;;;24.10;46.50;;;;;;4984972;28;19933;-63
2021/12/31 08:34:35;;;;;;;;;;;24.10;46.50;;;;;;4953969;28;19918;-63
2021/12/31 08:37:00;;;;;;;;;;;24.10;46.50;;;;;;4953086;28;19921;-63
2021/12/31 08:39:26;;;;;;;;;;;24.10;46.50;;;;;;4954049;28;19992;-63
2021/12/31 08:41:51;;;;;;;;;;;24.10;46.50;;;;;;4953711;28;19910;-63
2021/12/31 08:44:17;;;;;;;;;;;24.10;46.50;;;;;;4953683;28;19911;-63
2021/12/31 08:46:43;;;;;;;;;;;24.10;46.50;;;;;;4953658;29;19965;-63
2021/12/31 08:49:08;;;;;;;;;;;24.10;46.40;;;;;;4984935;28;19911;-62
2021/12/31 08:51:33;;;;;;;;;;;24.10;46.40;;;;;;4953123;29;19922;-63
2021/12/31 08:53:59;;;;;;;;;;;24.10;46.40;;;;;;4984708;28;19960;-63
2021/12/31 08:56:24;;;;;;;;;;;24.10;46.40;;;;;;4953380;29;19925;-64
2021/12/31 08:58:50;;;;;;;;;;;24.10;46.40;;;;;;4962379;28;19910;-63
2021/12/31 09:01:15;;;;;;;;;;;24.10;46.40;;;;;;4947519;29;20374;-63
2021/12/31 09:03:41;;;;;;;;;;;24.10;46.40;;;;;;4953579;29;19918;-63
2021/12/31 09:06:06;;;;;;;;;;;24.10;46.40;;;;;;4952715;29;19966;-63
2021/12/31 09:08:32;;;;;;;;;;;24.10;46.40;;;;;;4953828;28;19976;-63
2021/12/31 09:10:58;;;;;;;;;;;24.10;46.40;;;;;;4953337;28;20346;-63
2021/12/31 09:13:23;;;;;;;;;;;24.10;46.40;;;;;;4952393;29;19926;-63
2021/12/31 09:15:49;;;;;;;;;;;24.10;46.40;;;;;;4953344;29;19918;-63
2021/12/31 09:18:14;;;;;;;;;;;24.10;46.40;;;;;;4984192;28;20049;-63
2021/12/31 09:20:40;;;;;;;;;;;24.10;46.40;;;;;;4953122;29;19918;-63
2021/12/31 09:23:05;;;;;;;;;;;24.10;46.40;;;;;;4953094;29;19911;-63
2021/12/31 09:25:31;;;;;;;;;;;24.10;46.50;;;;;;4953457;29;19918;-63
2021/12/31 09:27:56;;;;;;;;;;;24.10;46.40;;;;;;4953252;29;19917;-63
2021/12/31 09:30:22;;;;;;;;;;;24.10;46.40;;;;;;4955020;28;19910;-63
2021/12/31 09:32:47;;;;;;;;;;;24.10;46.40;;;;;;4957243;29;19918;-63
2021/12/31 09:35:13;;;;;;;;;;;24.10;46.40;;;;;;4956972;29;19915;-63
2021/12/31 09:37:38;;;;;;;;;;;24.20;46.40;;;;;;4938849;29;19915;-63
2021/12/31 09:40:04;;;;;;;;;;;24.20;46.40;;;;;;4937969;29;20018;-63
2021/12/31 09:42:29;;;;;;;;;;;24.20;46.30;;;;;;4937537;29;20324;-64
2021/12/31 09:44:55;;;;;;;;;;;24.20;46.30;;;;;;4937680;29;19950;-64
2021/12/31 09:47:20;;;;;;;;;;;24.20;46.40;;;;;;4937479;29;19946;-63
2021/12/31 09:49:47;;;;;;;;;;;24.20;46.40;;;;;;4937913;29;19959;-63
2021/12/31 09:52:13;;;;;;;;;;;24.20;46.40;;;;;;4971117;28;19981;-63
2021/12/31 09:54:45;;;;;;;;;;;24.20;46.40;;;;;;4956933;28;19998;-63
2021/12/31 09:57:20;;;;;;;;;;;24.20;46.40;;;;;;4983517;28;19965;-63
2021/12/31 09:59:46;;;;;;;;;;;24.20;46.50;;;;;;4954149;28;19911;-63
2021/12/31 10:02:12;;;;;;;;;;;24.10;46.40;;;;;;4967624;28;19910;-63
2021/12/31 10:05:16;;;;;;;;;;;24.10;46.40;;;;;;4936209;29;20287;-63
2021/12/31 10:07:42;;;;;;;;;;;24.10;46.50;;;;;;4895960;29;19912;-64
2021/12/31 10:10:11;;;;;;;;;;;24.10;46.50;;;;;;4907521;29;19924;-63
2021/12/31 10:12:46;;;;;;;;;;;24.10;46.50;;;;;;4925892;29;19926;-63
2021/12/31 10:15:12;;;;;;;;;;;24.10;46.60;;;;;;4937248;29;19911;-63
2021/12/31 10:17:37;;;;;;;;;;;24.10;46.60;;;;;;4936845;29;19966;-63
2021/12/31 10:20:03;;;;;;;;;;;24.10;46.70;;;;;;4937350;29;19962;-63
2021/12/31 10:22:28;;;;;;;;;;;24.10;46.70;;;;;;4936219;28;20029;-63
2021/12/31 10:24:54;;;;;;;;;;;24.10;46.70;;;;;;4937052;29;19938;-64
2021/12/31 10:27:20;;;;;;;;;;;24.10;46.70;;;;;;4979748;28;20013;-63
2021/12/31 10:29:52;;;;;;;;;;;24.10;46.80;;;;;;4987088;28;19954;-63
2021/12/31 10:32:17;;;;;;;;;;;24.10;46.90;;;;;;4955745;29;19945;-64
2021/12/31 10:34:43;;;;;;;;;;;24.10;47.00;;;;;;4955948;28;19957;-63
2021/12/31 10:37:18;;;;;;;;;;;24.20;47.10;;;;;;4954971;29;20367;-63
2021/12/31 10:39:44;;;;;;;;;;;24.10;47.00;;;;;;4987327;28;19997;-63
2021/12/31 10:42:13;;;;;;;;;;;24.20;47.10;;;;;;4954616;28;20014;-62
2021/12/31 10:44:42;;;;;;;;;;;24.20;47.10;;;;;;4986473;28;19911;-63
2021/12/31 10:47:08;;;;;;;;;;;24.20;47.10;;;;;;4955564;28;19918;-63
2021/12/31 10:49:35;;;;;;;;;;;24.10;47.10;;;;;;4986444;28;19966;-63
2021/12/31 10:52:05;;;;;;;;;;;24.10;47.10;;;;;;4985504;28;19969;-63
2021/12/31 10:54:58;;;;;;;;;;;24.10;47.20;;;;;;4953977;29;19918;-62
2021/12/31 10:57:34;;;;;;;;;;;24.00;47.30;;;;;;4954438;28;20342;-63
2021/12/31 11:00:00;;;;;;;;;;;24.00;47.50;;;;;;4974925;28;20052;-63
2021/12/31 11:02:25;;;;;;;;;;;23.90;47.50;;;;;;4954897;29;20017;-63
2021/12/31 11:04:50;;;;;;;;;;;23.90;47.70;;;;;;4954981;29;19968;-62
2021/12/31 11:07:16;;;;;;;;;;;23.80;47.60;;;;;;4954209;29;19918;-63
2021/12/31 11:09:43;;;;;;;;;;;23.80;47.50;;;;;;4986021;28;19926;-64
2021/12/31 11:12:09;;;;;;;;;;;23.80;47.60;;;;;;4985714;28;19911;-63
2021/12/31 11:14:36;;;;;;;;;;;23.80;47.50;;;;;;4955010;28;19915;-63
2021/12/31 11:17:02;;;;;;;;;;;23.80;47.40;;;;;;4954463;29;19914;-64
2021/12/31 11:19:27;;;;;;;;;;;23.80;47.40;;;;;;4986186;28;19969;-63
2021/12/31 11:21:53;;;;;;;;;;;23.80;47.30;;;;;;4984977;28;20272;-63
2021/12/31 11:24:30;;;;;;;;;;;23.80;47.30;;;;;;4985858;28;20272;-63
2021/12/31 11:26:55;;;;;;;;;;;23.90;47.20;;;;;;4985359;28;19914;-63
2021/12/31 11:29:21;;;;;;;;;;;23.80;47.10;;;;;;4969595;28;20338;-64
2021/12/31 11:31:46;;;;;;;;;;;23.80;47.10;;;;;;4978968;28;19919;-63
2021/12/31 11:34:13;;;;;;;;;;;23.80;47.10;;;;;;4939075;29;20310;-63
2021/12/31 11:36:51;;;;;;;;;;;23.80;47.10;;;;;;4945507;28;19914;-63
2021/12/31 11:39:17;;;;;;;;;;;23.80;47.00;;;;;;4935578;29;20006;-63
2021/12/31 11:41:42;;;;;;;;;;;23.80;47.00;;;;;;4935200;29;20006;-63
2021/12/31 11:44:08;;;;;;;;;;;23.80;47.00;;;;;;4935193;29;19910;-63
2021/12/31 11:46:37;;;;;;;;;;;23.80;47.70;;;;;;4934897;29;19915;-63
2021/12/31 11:49:06;;;;;;;;;;;23.80;47.00;;;;;;4935288;29;19958;-63
2021/12/31 11:51:35;;;;;;;;;;;23.80;46.90;;;;;;4971234;28;19934;-63
2021/12/31 11:54:01;;;;;;;;;;;23.90;47.00;;;;;;4984506;28;20329;-63
2021/12/31 11:56:32;;;;;;;;;;;23.90;47.00;;;;;;4953863;29;19922;-63
2021/12/31 11:58:58;;;;;;;;;;;23.90;47.00;;;;;;4954299;29;20423;-63
2021/12/31 12:01:38;;;;;;;;;;;23.80;46.90;;;;;;4953886;28;19954;-63
2021/12/31 12:04:23;;;;;;;;;;;23.80;46.90;;;;;;4954244;29;19941;-63
2021/12/31 12:07:01;;;;;;;;;;;23.90;47.00;;;;;;4953198;28;20332;-63
2021/12/31 12:09:36;;;;;;;;;;;23.90;47.00;;;;;;4984858;28;19923;-63
2021/12/31 12:12:10;;;;;;;;;;;23.90;47.00;;;;;;4953731;29;19910;-63
2021/12/31 12:14:42;;;;;;;;;;;23.90;47.00;;;;;;4954266;28;19910;-63
2021/12/31 12:17:08;;;;;;;;;;;23.90;47.10;;;;;;4953681;28;19922;-63
2021/12/31 12:19:46;;;;;;;;;;;23.90;47.10;;;;;;4954032;28;19915;-63
2021/12/31 12:22:27;;;;;;;;;;;23.90;47.80;;;;;;4953314;28;20398;-63
2021/12/31 12:24:54;;;;;;;;;;;23.90;47.30;;;;;;4984509;28;19910;-63
2021/12/31 12:27:23;;;;;;;;;;;23.90;47.40;;;;;;4973661;28;20009;-63
2021/12/31 12:29:48;;;;;;;;;;;23.90;47.50;;;;;;4952595;29;19965;-63
2021/12/31 12:32:15;;;;;;;;;;;23.90;47.50;;;;;;4953241;29;19918;-63
2021/12/31 12:34:40;;;;;;;;;;;23.90;47.60;;;;;;4984731;28;19911;-63
2021/12/31 12:37:06;;;;;;;;;;;23.90;47.70;;;;;;4952725;29;20371;-63
2021/12/31 12:39:31;;;;;;;;;;;23.90;47.70;;;;;;4984733;28;20371;-63
2021/12/31 12:41:57;;;;;;;;;;;23.80;47.60;;;;;;4953362;29;20013;-63
2021/12/31 12:44:22;;;;;;;;;;;23.90;47.70;;;;;;4953528;29;19914;-63
2021/12/31 12:46:54;;;;;;;;;;;23.90;47.70;;;;;;4953286;29;19911;-63
2021/12/31 12:49:20;;;;;;;;;;;23.90;47.70;;;;;;4953568;28;19914;-62
2021/12/31 12:51:46;;;;;;;;;;;23.90;47.70;;;;;;4951256;29;19910;-62
2021/12/31 12:54:16;;;;;;;;;;;23.90;47.70;;;;;;4977740;28;19921;-63
2021/12/31 12:56:42;;;;;;;;;;;23.80;47.60;;;;;;4981901;28;19965;-63
2021/12/31 12:59:09;;;;;;;;;;;23.80;47.60;;;;;;4947336;29;19962;-63
2021/12/31 13:01:35;;;;;;;;;;;23.80;47.60;;;;;;4952144;29;20299;-63
2021/12/31 13:04:01;;;;;;;;;;;23.80;47.60;;;;;;4950489;28;19922;-62
2021/12/31 13:06:26;;;;;;;;;;;23.80;47.60;;;;;;4981260;28;19918;-62
2021/12/31 13:09:04;;;;;;;;;;;23.80;47.60;;;;;;4956217;29;20551;-64
2021/12/31 13:11:30;;;;;;;;;;;23.80;47.60;;;;;;4976391;28;20374;-63
2021/12/31 13:13:56;;;;;;;;;;;23.90;47.70;;;;;;4956782;29;19915;-63
2021/12/31 13:16:21;;;;;;;;;;;23.90;47.70;;;;;;4952214;29;19923;-63
2021/12/31 13:18:53;;;;;;;;;;;23.90;47.80;;;;;;4956513;29;19929;-63
2021/12/31 13:21:20;;;;;;;;;;;23.90;47.90;;;;;;4986722;28;19918;-63
2021/12/31 13:23:50;;;;;;;;;;;23.90;47.90;;;;;;4954218;29;19915;-63
2021/12/31 13:26:22;;;;;;;;;;;23.90;48.00;;;;;;4956064;28;19942;-64
2021/12/31 13:28:48;;;;;;;;;;;23.90;48.10;;;;;;4985597;28;19956;-63
2021/12/31 13:31:13;;;;;;;;;;;23.80;48.20;;;;;;4969671;28;19950;-64
2021/12/31 13:33:40;;;;;;;;;;;23.80;48.30;;;;;;4952176;29;19959;-64
2021/12/31 13:36:19;;;;;;;;;;;23.80;48.50;;;;;;4944597;29;19919;-64
2021/12/31 13:39:03;;;;;;;;;;;23.80;48.80;;;;;;4950430;29;19926;-62
2021/12/31 13:41:29;;;;;;;;;;;23.80;49.10;;;;;;4956295;28;19915;-63
2021/12/31 13:43:58;;;;;;;;;;;23.80;49.10;;;;;;4956733;29;19918;-64
2021/12/31 13:46:27;;;;;;;;;;;23.80;49.20;;;;;;4955306;28;19914;-64
2021/12/31 13:49:05;;;;;;;;;;;23.80;49.10;;;;;;4954397;28;19919;-64
2021/12/31 13:51:31;;;;;;;;;;;23.80;49.10;;;;;;4954085;29;19918;-63
2021/12/31 13:53:56;;;;;;;;;;;23.80;49.20;;;;;;4970691;28;19914;-64
2021/12/31 13:56:41;;;;;;;;;;;23.80;49.20;;;;;;4985795;28;19937;-63
2021/12/31 13:59:24;;;;;;;;;;;23.80;49.30;;;;;;4956406;28;19942;-64
2021/12/31 14:02:05;;;;;;;;;;;23.80;49.30;;;;;;4953855;29;20273;-63
2021/12/31 14:04:30;;;;;;;;;;;23.80;49.30;;;;;;4955173;29;20346;-63
2021/12/31 14:07:06;;;;;;;;;;;23.80;49.30;;;;;;4953759;28;19918;-63
2021/12/31 14:09:31;;;;;;;;;;;23.90;49.40;;;;;;4953210;28;19922;-63
2021/12/31 14:12:01;;;;;;;;;;;23.80;49.40;;;;;;4968734;28;20206;-62
2021/12/31 14:14:26;;;;;;;;;;;23.80;49.30;;;;;;4971648;28;20001;-63
2021/12/31 14:16:52;;;;;;;;;;;23.90;49.30;;;;;;4972106;28;20021;-62
2021/12/31 14:19:18;;;;;;;;;;;23.80;49.30;;;;;;4986990;28;19950;-63
2021/12/31 14:21:43;;;;;;;;;;;23.80;49.30;;;;;;4953600;28;20363;-63